sensor_id;sensor_type;location;lat;lon;timestamp;P1;durP1;ratioP1;P2;durP2;ratioP2
6185;SDS011;3126;52.738;8.316;2024-02-21T00:03:41;25.92;;;12.93;;
6185;SDS011;3126;52.738;8.316;2024-02-21T00:08:42;27.75;;;11.32;;
6185;SDS011;3126;52.738;8.316;2024-02-21T00:13:43;27.65;;;11.27;;
6185;SDS011;3126;52.738;8.316;2024-02-21T00:18:43;26.55;;;11.13;;
6185;SDS011;3126;52.738;8.316;2024-02-21T00:23:44;23.58;;;12.43;;
6185;SDS011;3126;52.738;8.316;2024-02-21T00:28:46;27.55;;;12.60;;
6185;SDS011;3126;52.738;8.316;2024-02-21T00:33:46;27.40;;;10.95;;
6185;SDS011;3126;52.738;8.316;2024-02-21T00:38:47;26.13;;;11.82;;
6185;SDS011;3126;52.738;8.316;2024-02-21T00:43:47;30.92;;;13.65;;
6185;SDS011;3126;52.738;8.316;2024-02-21T00:48:50;30.67;;;12.75;;
6185;SDS011;3126;52.738;8.316;2024-02-21T00:53:50;20.80;;;12.52;;
6185;SDS011;3126;52.738;8.316;2024-02-21T00:58:51;31.15;;;13.68;;
6185;SDS011;3126;52.738;8.316;2024-02-21T01:03:51;29.30;;;13.32;;
6185;SDS011;3126;52.738;8.316;2024-02-21T01:08:55;30.23;;;13.35;;
6185;SDS011;3126;52.738;8.316;2024-02-21T01:13:55;27.75;;;12.88;;
6185;SDS011;3126;52.738;8.316;2024-02-21T01:18:56;27.13;;;12.48;;
6185;SDS011;3126;52.738;8.316;2024-02-21T01:23:57;33.72;;;15.75;;
6185;SDS011;3126;52.738;8.316;2024-02-21T01:28:58;28.75;;;12.70;;
6185;SDS011;3126;52.738;8.316;2024-02-21T01:33:58;26.05;;;11.70;;
6185;SDS011;3126;52.738;8.316;2024-02-21T01:38:59;28.15;;;13.60;;
6185;SDS011;3126;52.738;8.316;2024-02-21T01:43:59;24.67;;;12.98;;
6185;SDS011;3126;52.738;8.316;2024-02-21T01:49:00;26.65;;;13.35;;
6185;SDS011;3126;52.738;8.316;2024-02-21T01:54:01;22.23;;;12.63;;
6185;SDS011;3126;52.738;8.316;2024-02-21T01:59:02;26.48;;;12.73;;
6185;SDS011;3126;52.738;8.316;2024-02-21T02:04:03;27.85;;;12.93;;
6185;SDS011;3126;52.738;8.316;2024-02-21T02:09:05;22.15;;;11.95;;
6185;SDS011;3126;52.738;8.316;2024-02-21T02:14:06;22.77;;;13.57;;
6185;SDS011;3126;52.738;8.316;2024-02-21T02:19:06;26.83;;;12.38;;
6185;SDS011;3126;52.738;8.316;2024-02-21T02:24:07;27.05;;;12.10;;
6185;SDS011;3126;52.738;8.316;2024-02-21T02:29:08;24.23;;;11.73;;
6185;SDS011;3126;52.738;8.316;2024-02-21T02:34:08;24.08;;;11.70;;
6185;SDS011;3126;52.738;8.316;2024-02-21T02:39:09;24.92;;;13.80;;
6185;SDS011;3126;52.738;8.316;2024-02-21T02:44:10;25.95;;;11.70;;
6185;SDS011;3126;52.738;8.316;2024-02-21T02:49:10;19.95;;;12.02;;
6185;SDS011;3126;52.738;8.316;2024-02-21T02:54:11;20.05;;;11.55;;
6185;SDS011;3126;52.738;8.316;2024-02-21T02:59:12;20.25;;;11.93;;
6185;SDS011;3126;52.738;8.316;2024-02-21T03:04:12;22.50;;;11.90;;
6185;SDS011;3126;52.738;8.316;2024-02-21T03:09:13;21.70;;;11.13;;
6185;SDS011;3126;52.738;8.316;2024-02-21T03:14:15;20.63;;;10.80;;
6185;SDS011;3126;52.738;8.316;2024-02-21T03:19:16;18.27;;;10.80;;
6185;SDS011;3126;52.738;8.316;2024-02-21T03:24:16;21.80;;;11.98;;
6185;SDS011;3126;52.738;8.316;2024-02-21T03:29:17;21.20;;;12.27;;
6185;SDS011;3126;52.738;8.316;2024-02-21T03:34:18;19.88;;;11.40;;
6185;SDS011;3126;52.738;8.316;2024-02-21T03:39:18;26.13;;;12.98;;
6185;SDS011;3126;52.738;8.316;2024-02-21T03:44:19;22.88;;;11.18;;
6185;SDS011;3126;52.738;8.316;2024-02-21T03:49:19;19.90;;;10.77;;
6185;SDS011;3126;52.738;8.316;2024-02-21T03:54:20;23.60;;;11.00;;
6185;SDS011;3126;52.738;8.316;2024-02-21T03:59:21;23.65;;;11.85;;
6185;SDS011;3126;52.738;8.316;2024-02-21T04:04:22;22.27;;;11.02;;
6185;SDS011;3126;52.738;8.316;2024-02-21T04:09:23;23.20;;;11.80;;
6185;SDS011;3126;52.738;8.316;2024-02-21T04:14:23;18.83;;;11.25;;
6185;SDS011;3126;52.738;8.316;2024-02-21T04:19:24;19.00;;;10.77;;
6185;SDS011;3126;52.738;8.316;2024-02-21T04:24:24;22.30;;;13.27;;
6185;SDS011;3126;52.738;8.316;2024-02-21T04:29:25;20.70;;;11.43;;
6185;SDS011;3126;52.738;8.316;2024-02-21T04:34:27;23.30;;;11.82;;
6185;SDS011;3126;52.738;8.316;2024-02-21T04:39:28;21.70;;;10.32;;
6185;SDS011;3126;52.738;8.316;2024-02-21T04:44:28;19.05;;;10.25;;
6185;SDS011;3126;52.738;8.316;2024-02-21T04:49:29;18.05;;;10.40;;
6185;SDS011;3126;52.738;8.316;2024-02-21T04:54:30;21.83;;;11.35;;
6185;SDS011;3126;52.738;8.316;2024-02-21T04:59:31;22.30;;;11.07;;
6185;SDS011;3126;52.738;8.316;2024-02-21T05:04:32;21.33;;;11.82;;
6185;SDS011;3126;52.738;8.316;2024-02-21T05:09:32;20.35;;;10.77;;
6185;SDS011;3126;52.738;8.316;2024-02-21T05:14:33;17.83;;;10.57;;
6185;SDS011;3126;52.738;8.316;2024-02-21T05:19:34;21.70;;;12.13;;
6185;SDS011;3126;52.738;8.316;2024-02-21T05:24:34;22.55;;;11.43;;
6185;SDS011;3126;52.738;8.316;2024-02-21T05:29:36;23.38;;;11.45;;
6185;SDS011;3126;52.738;8.316;2024-02-21T05:34:36;20.00;;;11.45;;
6185;SDS011;3126;52.738;8.316;2024-02-21T05:39:37;19.15;;;11.88;;
6185;SDS011;3126;52.738;8.316;2024-02-21T05:44:38;21.67;;;11.68;;
6185;SDS011;3126;52.738;8.316;2024-02-21T05:49:39;23.67;;;10.55;;
6185;SDS011;3126;52.738;8.316;2024-02-21T05:54:39;20.85;;;10.95;;
6185;SDS011;3126;52.738;8.316;2024-02-21T05:59:40;22.35;;;12.02;;
6185;SDS011;3126;52.738;8.316;2024-02-21T06:04:41;26.05;;;12.55;;
6185;SDS011;3126;52.738;8.316;2024-02-21T06:09:46;22.48;;;12.48;;
6185;SDS011;3126;52.738;8.316;2024-02-21T06:14:47;24.27;;;12.35;;
6185;SDS011;3126;52.738;8.316;2024-02-21T06:19:47;23.27;;;11.75;;
6185;SDS011;3126;52.738;8.316;2024-02-21T06:24:48;24.52;;;12.85;;
6185;SDS011;3126;52.738;8.316;2024-02-21T06:29:48;25.27;;;12.35;;
6185;SDS011;3126;52.738;8.316;2024-02-21T06:34:49;27.48;;;12.77;;
6185;SDS011;3126;52.738;8.316;2024-02-21T06:39:49;29.48;;;12.63;;
6185;SDS011;3126;52.738;8.316;2024-02-21T06:44:50;29.50;;;13.30;;
6185;SDS011;3126;52.738;8.316;2024-02-21T06:49:51;24.38;;;12.15;;
6185;SDS011;3126;52.738;8.316;2024-02-21T06:54:52;28.83;;;13.40;;
6185;SDS011;3126;52.738;8.316;2024-02-21T06:59:52;25.98;;;12.98;;
6185;SDS011;3126;52.738;8.316;2024-02-21T07:04:53;29.33;;;13.50;;
6185;SDS011;3126;52.738;8.316;2024-02-21T07:09:53;31.40;;;13.75;;
6185;SDS011;3126;52.738;8.316;2024-02-21T07:14:54;29.33;;;13.48;;
6185;SDS011;3126;52.738;8.316;2024-02-21T07:19:55;22.17;;;12.65;;
6185;SDS011;3126;52.738;8.316;2024-02-21T07:24:56;66.65;;;17.15;;
6185;SDS011;3126;52.738;8.316;2024-02-21T07:29:57;24.23;;;10.70;;
6185;SDS011;3126;52.738;8.316;2024-02-21T07:34:58;19.48;;;12.00;;
6185;SDS011;3126;52.738;8.316;2024-02-21T07:39:58;24.02;;;11.70;;
6185;SDS011;3126;52.738;8.316;2024-02-21T07:44:59;24.27;;;11.25;;
6185;SDS011;3126;52.738;8.316;2024-02-21T07:49:59;24.05;;;11.25;;
6185;SDS011;3126;52.738;8.316;2024-02-21T07:55:00;23.88;;;9.50;;
6185;SDS011;3126;52.738;8.316;2024-02-21T08:00:01;24.15;;;10.95;;
6185;SDS011;3126;52.738;8.316;2024-02-21T08:05:04;24.23;;;10.52;;
6185;SDS011;3126;52.738;8.316;2024-02-21T08:10:05;20.40;;;9.50;;
6185;SDS011;3126;52.738;8.316;2024-02-21T08:15:08;18.27;;;9.98;;
6185;SDS011;3126;52.738;8.316;2024-02-21T08:20:10;18.05;;;8.65;;
6185;SDS011;3126;52.738;8.316;2024-02-21T08:25:11;20.55;;;9.52;;
6185;SDS011;3126;52.738;8.316;2024-02-21T08:30:11;17.23;;;9.45;;
6185;SDS011;3126;52.738;8.316;2024-02-21T08:35:12;19.10;;;9.88;;
6185;SDS011;3126;52.738;8.316;2024-02-21T08:40:14;27.80;;;10.60;;
6185;SDS011;3126;52.738;8.316;2024-02-21T08:50:18;34.45;;;9.93;;
6185;SDS011;3126;52.738;8.316;2024-02-21T08:55:18;16.13;;;9.00;;
6185;SDS011;3126;52.738;8.316;2024-02-21T09:00:19;16.98;;;9.40;;
6185;SDS011;3126;52.738;8.316;2024-02-21T09:05:24;15.63;;;8.48;;
6185;SDS011;3126;52.738;8.316;2024-02-21T09:10:24;29.30;;;11.07;;
6185;SDS011;3126;52.738;8.316;2024-02-21T09:15:25;17.00;;;8.90;;
6185;SDS011;3126;52.738;8.316;2024-02-21T09:20:26;19.73;;;9.93;;
6185;SDS011;3126;52.738;8.316;2024-02-21T09:25:27;17.98;;;8.88;;
6185;SDS011;3126;52.738;8.316;2024-02-21T09:30:28;19.17;;;9.30;;
6185;SDS011;3126;52.738;8.316;2024-02-21T09:35:28;16.00;;;9.00;;
6185;SDS011;3126;52.738;8.316;2024-02-21T09:40:29;15.43;;;8.43;;
6185;SDS011;3126;52.738;8.316;2024-02-21T09:45:30;65.35;;;13.98;;
6185;SDS011;3126;52.738;8.316;2024-02-21T09:50:30;83.63;;;16.80;;
6185;SDS011;3126;52.738;8.316;2024-02-21T10:00:35;12.75;;;7.72;;
6185;SDS011;3126;52.738;8.316;2024-02-21T10:05:36;13.02;;;7.20;;
6185;SDS011;3126;52.738;8.316;2024-02-21T10:10:44;14.35;;;8.52;;
6185;SDS011;3126;52.738;8.316;2024-02-21T10:15:45;14.70;;;8.38;;
6185;SDS011;3126;52.738;8.316;2024-02-21T10:20:59;10.65;;;6.65;;
6185;SDS011;3126;52.738;8.316;2024-02-21T10:26:07;14.48;;;8.15;;
6185;SDS011;3126;52.738;8.316;2024-02-21T10:31:08;13.60;;;7.78;;
6185;SDS011;3126;52.738;8.316;2024-02-21T10:36:10;10.52;;;6.25;;
6185;SDS011;3126;52.738;8.316;2024-02-21T10:41:13;10.80;;;7.72;;
6185;SDS011;3126;52.738;8.316;2024-02-21T10:46:17;17.45;;;7.65;;
6185;SDS011;3126;52.738;8.316;2024-02-21T10:51:20;15.40;;;6.63;;
6185;SDS011;3126;52.738;8.316;2024-02-21T11:01:28;9.77;;;5.70;;
6185;SDS011;3126;52.738;8.316;2024-02-21T11:06:31;12.35;;;5.82;;
6185;SDS011;3126;52.738;8.316;2024-02-21T11:11:34;11.15;;;5.88;;
6185;SDS011;3126;52.738;8.316;2024-02-21T11:16:38;10.98;;;5.38;;
6185;SDS011;3126;52.738;8.316;2024-02-21T11:21:40;10.82;;;6.50;;
6185;SDS011;3126;52.738;8.316;2024-02-21T11:26:41;16.02;;;6.88;;
6185;SDS011;3126;52.738;8.316;2024-02-21T11:31:43;6.32;;;4.82;;
6185;SDS011;3126;52.738;8.316;2024-02-21T11:36:49;11.30;;;4.93;;
6185;SDS011;3126;52.738;8.316;2024-02-21T11:42:03;12.20;;;4.95;;
6185;SDS011;3126;52.738;8.316;2024-02-21T11:47:04;11.25;;;5.22;;
6185;SDS011;3126;52.738;8.316;2024-02-21T11:52:06;7.38;;;5.00;;
6185;SDS011;3126;52.738;8.316;2024-02-21T11:57:07;7.47;;;5.13;;
6185;SDS011;3126;52.738;8.316;2024-02-21T12:02:08;23.65;;;7.70;;
6185;SDS011;3126;52.738;8.316;2024-02-21T12:07:10;12.38;;;5.90;;
6185;SDS011;3126;52.738;8.316;2024-02-21T12:12:11;12.30;;;7.13;;
6185;SDS011;3126;52.738;8.316;2024-02-21T12:17:12;12.45;;;7.22;;
6185;SDS011;3126;52.738;8.316;2024-02-21T12:22:16;11.55;;;6.90;;
6185;SDS011;3126;52.738;8.316;2024-02-21T12:27:19;11.80;;;8.02;;
6185;SDS011;3126;52.738;8.316;2024-02-21T12:32:22;12.73;;;8.82;;
6185;SDS011;3126;52.738;8.316;2024-02-21T12:37:23;12.90;;;8.40;;
6185;SDS011;3126;52.738;8.316;2024-02-21T12:42:24;13.52;;;9.52;;
6185;SDS011;3126;52.738;8.316;2024-02-21T12:47:26;12.77;;;8.82;;
6185;SDS011;3126;52.738;8.316;2024-02-21T12:52:26;13.40;;;8.55;;
6185;SDS011;3126;52.738;8.316;2024-02-21T12:57:28;14.48;;;9.45;;
6185;SDS011;3126;52.738;8.316;2024-02-21T13:02:29;10.55;;;8.23;;
6185;SDS011;3126;52.738;8.316;2024-02-21T13:07:30;11.77;;;9.63;;
6185;SDS011;3126;52.738;8.316;2024-02-21T13:12:32;13.85;;;8.70;;
6185;SDS011;3126;52.738;8.316;2024-02-21T13:17:32;11.25;;;8.43;;
6185;SDS011;3126;52.738;8.316;2024-02-21T13:22:33;10.88;;;8.73;;
6185;SDS011;3126;52.738;8.316;2024-02-21T13:27:34;11.23;;;8.70;;
6185;SDS011;3126;52.738;8.316;2024-02-21T13:32:35;10.60;;;8.05;;
6185;SDS011;3126;52.738;8.316;2024-02-21T13:37:35;9.25;;;7.60;;
6185;SDS011;3126;52.738;8.316;2024-02-21T13:42:37;9.02;;;6.38;;
6185;SDS011;3126;52.738;8.316;2024-02-21T13:47:37;9.40;;;6.93;;
6185;SDS011;3126;52.738;8.316;2024-02-21T13:52:41;7.13;;;5.32;;
6185;SDS011;3126;52.738;8.316;2024-02-21T13:57:42;7.60;;;5.15;;
6185;SDS011;3126;52.738;8.316;2024-02-21T14:02:42;6.25;;;4.90;;
6185;SDS011;3126;52.738;8.316;2024-02-21T14:07:43;7.25;;;4.68;;
6185;SDS011;3126;52.738;8.316;2024-02-21T14:12:44;5.68;;;4.60;;
6185;SDS011;3126;52.738;8.316;2024-02-21T14:17:44;6.72;;;4.80;;
6185;SDS011;3126;52.738;8.316;2024-02-21T14:22:45;9.10;;;5.35;;
6185;SDS011;3126;52.738;8.316;2024-02-21T14:27:45;9.52;;;5.35;;
6185;SDS011;3126;52.738;8.316;2024-02-21T14:32:46;8.00;;;4.75;;
6185;SDS011;3126;52.738;8.316;2024-02-21T14:37:47;8.73;;;5.38;;
6185;SDS011;3126;52.738;8.316;2024-02-21T14:42:49;8.63;;;5.68;;
6185;SDS011;3126;52.738;8.316;2024-02-21T14:47:49;8.65;;;5.75;;
6185;SDS011;3126;52.738;8.316;2024-02-21T14:52:50;13.20;;;6.60;;
6185;SDS011;3126;52.738;8.316;2024-02-21T14:57:52;11.90;;;6.18;;
6185;SDS011;3126;52.738;8.316;2024-02-21T15:02:52;8.85;;;6.03;;
6185;SDS011;3126;52.738;8.316;2024-02-21T15:07:55;13.05;;;7.35;;
6185;SDS011;3126;52.738;8.316;2024-02-21T15:12:57;10.30;;;6.20;;
6185;SDS011;3126;52.738;8.316;2024-02-21T15:17:58;11.27;;;6.47;;
6185;SDS011;3126;52.738;8.316;2024-02-21T15:22:59;11.63;;;7.65;;
6185;SDS011;3126;52.738;8.316;2024-02-21T15:28:00;12.27;;;7.90;;
6185;SDS011;3126;52.738;8.316;2024-02-21T15:33:04;9.95;;;6.93;;
6185;SDS011;3126;52.738;8.316;2024-02-21T15:38:05;12.75;;;7.85;;
6185;SDS011;3126;52.738;8.316;2024-02-21T15:43:06;12.75;;;7.65;;
6185;SDS011;3126;52.738;8.316;2024-02-21T15:48:08;9.68;;;6.75;;
6185;SDS011;3126;52.738;8.316;2024-02-21T15:53:08;10.65;;;6.07;;
6185;SDS011;3126;52.738;8.316;2024-02-21T15:58:10;13.15;;;7.28;;
6185;SDS011;3126;52.738;8.316;2024-02-21T16:03:11;10.13;;;5.57;;
6185;SDS011;3126;52.738;8.316;2024-02-21T16:08:12;13.43;;;5.95;;
6185;SDS011;3126;52.738;8.316;2024-02-21T16:13:13;11.43;;;5.70;;
6185;SDS011;3126;52.738;8.316;2024-02-21T16:18:14;14.20;;;5.80;;
6185;SDS011;3126;52.738;8.316;2024-02-21T16:23:20;9.57;;;5.45;;
6185;SDS011;3126;52.738;8.316;2024-02-21T16:28:20;7.53;;;4.28;;
6185;SDS011;3126;52.738;8.316;2024-02-21T16:33:21;8.88;;;5.10;;
6185;SDS011;3126;52.738;8.316;2024-02-21T16:38:22;11.25;;;4.93;;
6185;SDS011;3126;52.738;8.316;2024-02-21T16:43:26;7.72;;;5.05;;
6185;SDS011;3126;52.738;8.316;2024-02-21T16:48:27;8.60;;;4.88;;
6185;SDS011;3126;52.738;8.316;2024-02-21T16:53:29;10.32;;;4.80;;
6185;SDS011;3126;52.738;8.316;2024-02-21T16:58:30;13.98;;;5.97;;
6185;SDS011;3126;52.738;8.316;2024-02-21T17:03:36;9.52;;;4.57;;
6185;SDS011;3126;52.738;8.316;2024-02-21T17:08:37;8.38;;;3.67;;
6185;SDS011;3126;52.738;8.316;2024-02-21T17:13:38;10.10;;;3.30;;
6185;SDS011;3126;52.738;8.316;2024-02-21T17:18:38;7.70;;;3.58;;
6185;SDS011;3126;52.738;8.316;2024-02-21T17:23:40;6.55;;;2.88;;
6185;SDS011;3126;52.738;8.316;2024-02-21T17:28:40;8.45;;;3.42;;
6185;SDS011;3126;52.738;8.316;2024-02-21T17:33:41;6.22;;;3.03;;
6185;SDS011;3126;52.738;8.316;2024-02-21T17:38:43;7.18;;;3.58;;
6185;SDS011;3126;52.738;8.316;2024-02-21T17:43:43;7.97;;;3.60;;
6185;SDS011;3126;52.738;8.316;2024-02-21T17:48:47;5.45;;;3.40;;
6185;SDS011;3126;52.738;8.316;2024-02-21T17:53:47;6.32;;;3.55;;
6185;SDS011;3126;52.738;8.316;2024-02-21T17:58:48;8.30;;;3.30;;
6185;SDS011;3126;52.738;8.316;2024-02-21T18:03:49;10.50;;;3.72;;
6185;SDS011;3126;52.738;8.316;2024-02-21T18:08:51;9.07;;;3.97;;
6185;SDS011;3126;52.738;8.316;2024-02-21T18:13:53;6.10;;;3.58;;
6185;SDS011;3126;52.738;8.316;2024-02-21T18:18:55;6.45;;;3.25;;
6185;SDS011;3126;52.738;8.316;2024-02-21T18:23:55;7.57;;;3.72;;
6185;SDS011;3126;52.738;8.316;2024-02-21T18:28:56;8.40;;;3.92;;
6185;SDS011;3126;52.738;8.316;2024-02-21T18:33:57;7.60;;;3.80;;
6185;SDS011;3126;52.738;8.316;2024-02-21T18:38:59;10.02;;;3.33;;
6185;SDS011;3126;52.738;8.316;2024-02-21T18:44:00;6.78;;;3.72;;
6185;SDS011;3126;52.738;8.316;2024-02-21T18:49:00;6.95;;;3.10;;
6185;SDS011;3126;52.738;8.316;2024-02-21T18:54:01;7.05;;;3.53;;
6185;SDS011;3126;52.738;8.316;2024-02-21T18:59:02;8.75;;;3.47;;
6185;SDS011;3126;52.738;8.316;2024-02-21T19:04:04;6.72;;;3.33;;
6185;SDS011;3126;52.738;8.316;2024-02-21T19:09:04;5.95;;;3.97;;
6185;SDS011;3126;52.738;8.316;2024-02-21T19:14:05;7.28;;;3.58;;
6185;SDS011;3126;52.738;8.316;2024-02-21T19:19:05;7.82;;;3.33;;
6185;SDS011;3126;52.738;8.316;2024-02-21T19:24:06;7.22;;;3.05;;
6185;SDS011;3126;52.738;8.316;2024-02-21T19:29:07;8.55;;;3.13;;
6185;SDS011;3126;52.738;8.316;2024-02-21T19:34:08;6.70;;;2.80;;
6185;SDS011;3126;52.738;8.316;2024-02-21T19:39:10;6.82;;;2.95;;
6185;SDS011;3126;52.738;8.316;2024-02-21T19:44:11;4.93;;;3.17;;
6185;SDS011;3126;52.738;8.316;2024-02-21T19:49:13;6.57;;;2.80;;
6185;SDS011;3126;52.738;8.316;2024-02-21T19:54:14;6.35;;;3.35;;
6185;SDS011;3126;52.738;8.316;2024-02-21T19:59:16;5.82;;;2.97;;
6185;SDS011;3126;52.738;8.316;2024-02-21T20:04:17;5.22;;;2.83;;
6185;SDS011;3126;52.738;8.316;2024-02-21T20:09:18;6.10;;;3.45;;
6185;SDS011;3126;52.738;8.316;2024-02-21T20:14:18;7.65;;;3.55;;
6185;SDS011;3126;52.738;8.316;2024-02-21T20:19:19;5.43;;;3.20;;
6185;SDS011;3126;52.738;8.316;2024-02-21T20:24:20;5.60;;;2.95;;
6185;SDS011;3126;52.738;8.316;2024-02-21T20:29:20;7.90;;;3.50;;
6185;SDS011;3126;52.738;8.316;2024-02-21T20:34:22;6.40;;;3.25;;
6185;SDS011;3126;52.738;8.316;2024-02-21T20:39:26;7.93;;;3.80;;
6185;SDS011;3126;52.738;8.316;2024-02-21T20:44:30;4.65;;;2.60;;
6185;SDS011;3126;52.738;8.316;2024-02-21T20:49:31;3.90;;;2.75;;
6185;SDS011;3126;52.738;8.316;2024-02-21T20:54:31;7.03;;;3.20;;
6185;SDS011;3126;52.738;8.316;2024-02-21T20:59:33;3.55;;;2.92;;
6185;SDS011;3126;52.738;8.316;2024-02-21T21:04:34;17.55;;;3.70;;
6185;SDS011;3126;52.738;8.316;2024-02-21T21:09:34;6.28;;;2.70;;
6185;SDS011;3126;52.738;8.316;2024-02-21T21:14:35;11.23;;;3.20;;
6185;SDS011;3126;52.738;8.316;2024-02-21T21:19:36;7.38;;;3.00;;
6185;SDS011;3126;52.738;8.316;2024-02-21T21:24:37;4.07;;;2.30;;
6185;SDS011;3126;52.738;8.316;2024-02-21T21:29:38;4.15;;;3.28;;
6185;SDS011;3126;52.738;8.316;2024-02-21T21:34:39;5.38;;;2.83;;
6185;SDS011;3126;52.738;8.316;2024-02-21T21:39:40;5.47;;;2.55;;
6185;SDS011;3126;52.738;8.316;2024-02-21T21:44:43;4.30;;;2.67;;
6185;SDS011;3126;52.738;8.316;2024-02-21T21:49:45;7.28;;;3.17;;
6185;SDS011;3126;52.738;8.316;2024-02-21T21:54:47;4.40;;;3.35;;
6185;SDS011;3126;52.738;8.316;2024-02-21T21:59:48;4.10;;;3.08;;
6185;SDS011;3126;52.738;8.316;2024-02-21T22:04:49;5.72;;;3.22;;
6185;SDS011;3126;52.738;8.316;2024-02-21T22:09:50;7.05;;;3.72;;
6185;SDS011;3126;52.738;8.316;2024-02-21T22:14:51;4.40;;;3.22;;
6185;SDS011;3126;52.738;8.316;2024-02-21T22:19:52;5.68;;;3.22;;
6185;SDS011;3126;52.738;8.316;2024-02-21T22:24:53;7.68;;;3.70;;
6185;SDS011;3126;52.738;8.316;2024-02-21T22:29:54;7.88;;;3.35;;
6185;SDS011;3126;52.738;8.316;2024-02-21T22:34:57;5.80;;;3.72;;
6185;SDS011;3126;52.738;8.316;2024-02-21T22:39:58;5.32;;;3.58;;
6185;SDS011;3126;52.738;8.316;2024-02-21T22:44:59;8.65;;;4.05;;
6185;SDS011;3126;52.738;8.316;2024-02-21T22:50:00;5.43;;;3.58;;
6185;SDS011;3126;52.738;8.316;2024-02-21T22:55:01;7.35;;;4.25;;
6185;SDS011;3126;52.738;8.316;2024-02-21T23:00:03;8.63;;;4.90;;
6185;SDS011;3126;52.738;8.316;2024-02-21T23:05:07;6.28;;;4.35;;
6185;SDS011;3126;52.738;8.316;2024-02-21T23:10:08;8.52;;;4.38;;
6185;SDS011;3126;52.738;8.316;2024-02-21T23:15:09;6.38;;;4.22;;
6185;SDS011;3126;52.738;8.316;2024-02-21T23:20:10;5.32;;;4.82;;
6185;SDS011;3126;52.738;8.316;2024-02-21T23:25:12;6.53;;;4.35;;
6185;SDS011;3126;52.738;8.316;2024-02-21T23:30:13;8.07;;;4.70;;
6185;SDS011;3126;52.738;8.316;2024-02-21T23:35:14;6.68;;;4.57;;
6185;SDS011;3126;52.738;8.316;2024-02-21T23:40:15;7.50;;;4.60;;
6185;SDS011;3126;52.738;8.316;2024-02-21T23:45:16;8.25;;;4.75;;
6185;SDS011;3126;52.738;8.316;2024-02-21T23:50:17;6.35;;;4.85;;
6185;SDS011;3126;52.738;8.316;2024-02-21T23:55:19;6.85;;;4.85;;
